sensor_id;sensor_type;location;lat;lon;timestamp;P1;durP1;ratioP1;P2;durP2;ratioP2
56824;SDS011;42705;50.326;18.772;2022-09-20T00:03:58;4.90;;;4.40;;
56824;SDS011;42705;50.326;18.772;2022-09-20T00:09:18;4.65;;;4.17;;
56824;SDS011;42705;50.326;18.772;2022-09-20T00:14:39;6.78;;;4.67;;
56824;SDS011;42705;50.326;18.772;2022-09-20T00:20:00;5.30;;;4.80;;
56824;SDS011;42705;50.326;18.772;2022-09-20T00:25:21;4.97;;;4.47;;
56824;SDS011;42705;50.326;18.772;2022-09-20T00:30:42;6.87;;;5.03;;
56824;SDS011;42705;50.326;18.772;2022-09-20T00:36:03;5.12;;;4.62;;
56824;SDS011;42705;50.326;18.772;2022-09-20T00:41:24;5.50;;;4.75;;
56824;SDS011;42705;50.326;18.772;2022-09-20T00:46:45;6.95;;;5.05;;
56824;SDS011;42705;50.326;18.772;2022-09-20T00:52:06;6.28;;;4.40;;
56824;SDS011;42705;50.326;18.772;2022-09-20T00:57:28;5.87;;;5.17;;
56824;SDS011;42705;50.326;18.772;2022-09-20T01:02:52;9.00;;;4.83;;
56824;SDS011;42705;50.326;18.772;2022-09-20T01:08:17;5.60;;;4.92;;
56824;SDS011;42705;50.326;18.772;2022-09-20T01:13:38;6.53;;;5.00;;
56824;SDS011;42705;50.326;18.772;2022-09-20T01:18:59;5.12;;;4.30;;
56824;SDS011;42705;50.326;18.772;2022-09-20T01:24:26;8.38;;;5.10;;
56824;SDS011;42705;50.326;18.772;2022-09-20T01:35:26;5.92;;;4.20;;
56824;SDS011;42705;50.326;18.772;2022-09-20T01:40:57;6.45;;;5.28;;
56824;SDS011;42705;50.326;18.772;2022-09-20T01:46:32;5.25;;;4.58;;
56824;SDS011;42705;50.326;18.772;2022-09-20T02:27:50;8.13;;;5.78;;
56824;SDS011;42705;50.326;18.772;2022-09-20T02:34:02;9.05;;;6.00;;
56824;SDS011;42705;50.326;18.772;2022-09-20T02:39:48;8.00;;;6.15;;
56824;SDS011;42705;50.326;18.772;2022-09-20T02:51:20;7.08;;;5.25;;
56824;SDS011;42705;50.326;18.772;2022-09-20T02:56:59;6.97;;;5.78;;
56824;SDS011;42705;50.326;18.772;2022-09-20T03:08:09;6.55;;;5.12;;
56824;SDS011;42705;50.326;18.772;2022-09-20T03:19:59;8.60;;;5.47;;
56824;SDS011;42705;50.326;18.772;2022-09-20T03:31:34;7.53;;;5.42;;
56824;SDS011;42705;50.326;18.772;2022-09-20T03:43:12;5.95;;;4.95;;
56824;SDS011;42705;50.326;18.772;2022-09-20T03:48:58;9.60;;;4.55;;
56824;SDS011;42705;50.326;18.772;2022-09-20T04:06:16;4.60;;;3.98;;
56824;SDS011;42705;50.326;18.772;2022-09-20T04:29:28;6.95;;;6.25;;
56824;SDS011;42705;50.326;18.772;2022-09-20T04:41:26;9.73;;;7.12;;
56824;SDS011;42705;50.326;18.772;2022-09-20T04:46:59;7.58;;;6.28;;
56824;SDS011;42705;50.326;18.772;2022-09-20T05:15:49;9.28;;;7.72;;
56824;SDS011;42705;50.326;18.772;2022-09-20T05:50:27;8.10;;;7.30;;
56824;SDS011;42705;50.326;18.772;2022-09-20T05:56:17;15.45;;;7.72;;
56824;SDS011;42705;50.326;18.772;2022-09-20T06:08:00;8.15;;;6.90;;
56824;SDS011;42705;50.326;18.772;2022-09-20T06:25:44;6.85;;;6.15;;
56824;SDS011;42705;50.326;18.772;2022-09-20T06:31:13;7.97;;;6.67;;
56824;SDS011;42705;50.326;18.772;2022-09-20T06:36:36;12.88;;;8.13;;
56824;SDS011;42705;50.326;18.772;2022-09-20T06:42:21;7.70;;;7.00;;
56824;SDS011;42705;50.326;18.772;2022-09-20T06:47:42;8.98;;;7.58;;
56824;SDS011;42705;50.326;18.772;2022-09-20T06:53:03;9.05;;;6.65;;
56824;SDS011;42705;50.326;18.772;2022-09-20T06:58:25;9.07;;;5.30;;
56824;SDS011;42705;50.326;18.772;2022-09-20T07:03:46;7.47;;;6.78;;
56824;SDS011;42705;50.326;18.772;2022-09-20T07:09:08;11.40;;;6.65;;
56824;SDS011;42705;50.326;18.772;2022-09-20T07:14:30;8.00;;;7.20;;
56824;SDS011;42705;50.326;18.772;2022-09-20T07:19:51;7.40;;;6.37;;
56824;SDS011;42705;50.326;18.772;2022-09-20T07:25:12;7.10;;;6.42;;
56824;SDS011;42705;50.326;18.772;2022-09-20T07:30:33;6.78;;;6.10;;
56824;SDS011;42705;50.326;18.772;2022-09-20T07:35:54;9.35;;;5.55;;
56824;SDS011;42705;50.326;18.772;2022-09-20T07:41:15;6.10;;;5.50;;
56824;SDS011;42705;50.326;18.772;2022-09-20T07:46:42;5.90;;;4.80;;
56824;SDS011;42705;50.326;18.772;2022-09-20T07:57:26;10.35;;;7.37;;
56824;SDS011;42705;50.326;18.772;2022-09-20T08:02:47;7.85;;;5.62;;
56824;SDS011;42705;50.326;18.772;2022-09-20T08:08:14;8.85;;;7.83;;
56824;SDS011;42705;50.326;18.772;2022-09-20T08:13:43;10.43;;;7.97;;
56824;SDS011;42705;50.326;18.772;2022-09-20T08:19:03;6.80;;;5.12;;
56824;SDS011;42705;50.326;18.772;2022-09-20T08:24:24;6.85;;;5.40;;
56824;SDS011;42705;50.326;18.772;2022-09-20T08:29:46;4.30;;;3.52;;
56824;SDS011;42705;50.326;18.772;2022-09-20T08:35:07;7.05;;;4.17;;
56824;SDS011;42705;50.326;18.772;2022-09-20T08:40:28;3.40;;;3.00;;
56824;SDS011;42705;50.326;18.772;2022-09-20T08:45:50;3.80;;;3.50;;
56824;SDS011;42705;50.326;18.772;2022-09-20T08:51:12;3.50;;;3.00;;
56824;SDS011;42705;50.326;18.772;2022-09-20T08:56:35;3.45;;;2.90;;
56824;SDS011;42705;50.326;18.772;2022-09-20T09:01:57;2.67;;;1.70;;
56824;SDS011;42705;50.326;18.772;2022-09-20T09:07:19;3.97;;;2.50;;
56824;SDS011;42705;50.326;18.772;2022-09-20T09:12:41;3.15;;;2.77;;
56824;SDS011;42705;50.326;18.772;2022-09-20T09:18:07;2.87;;;2.60;;
56824;SDS011;42705;50.326;18.772;2022-09-20T09:23:36;3.62;;;1.72;;
56824;SDS011;42705;50.326;18.772;2022-09-20T09:29:07;1.70;;;1.60;;
56824;SDS011;42705;50.326;18.772;2022-09-20T09:34:43;3.20;;;1.30;;
56824;SDS011;42705;50.326;18.772;2022-09-20T09:40:15;1.27;;;0.93;;
56824;SDS011;42705;50.326;18.772;2022-09-20T09:45:38;1.55;;;0.80;;
56824;SDS011;42705;50.326;18.772;2022-09-20T09:51:07;3.30;;;0.70;;
56824;SDS011;42705;50.326;18.772;2022-09-20T09:56:42;1.05;;;0.90;;
56824;SDS011;42705;50.326;18.772;2022-09-20T10:02:42;0.80;;;0.80;;
56824;SDS011;42705;50.326;18.772;2022-09-20T10:20:14;2.67;;;1.70;;
56824;SDS011;42705;50.326;18.772;2022-09-20T10:43:05;2.62;;;2.22;;
56824;SDS011;42705;50.326;18.772;2022-09-20T10:48:40;3.60;;;2.70;;
56824;SDS011;42705;50.326;18.772;2022-09-20T11:01:01;3.35;;;3.05;;
56824;SDS011;42705;50.326;18.772;2022-09-20T11:06:00;1.70;;;1.60;;
56824;SDS011;42705;50.326;18.772;2022-09-20T11:11:41;3.60;;;1.98;;
56824;SDS011;42705;50.326;18.772;2022-09-20T11:17:07;2.50;;;1.72;;
56824;SDS011;42705;50.326;18.772;2022-09-20T11:22:46;1.90;;;1.47;;
56824;SDS011;42705;50.326;18.772;2022-09-20T11:45:15;1.10;;;1.00;;
56824;SDS011;42705;50.326;18.772;2022-09-20T11:56:50;1.70;;;1.60;;
56824;SDS011;42705;50.326;18.772;2022-09-20T12:08:07;1.12;;;0.80;;
56824;SDS011;42705;50.326;18.772;2022-09-20T12:14:01;1.95;;;0.80;;
56824;SDS011;42705;50.326;18.772;2022-09-20T12:26:00;1.27;;;0.95;;
56824;SDS011;42705;50.326;18.772;2022-09-20T12:42:29;1.30;;;0.50;;
56824;SDS011;42705;50.326;18.772;2022-09-20T12:47:52;1.82;;;0.75;;
56824;SDS011;42705;50.326;18.772;2022-09-20T12:53:15;4.53;;;0.90;;
56824;SDS011;42705;50.326;18.772;2022-09-20T12:58:57;0.78;;;0.60;;
56824;SDS011;42705;50.326;18.772;2022-09-20T13:10:19;0.65;;;0.42;;
56824;SDS011;42705;50.326;18.772;2022-09-20T13:15:48;1.10;;;0.65;;
56824;SDS011;42705;50.326;18.772;2022-09-20T13:21:09;0.78;;;0.53;;
56824;SDS011;42705;50.326;18.772;2022-09-20T13:26:34;1.98;;;0.50;;
56824;SDS011;42705;50.326;18.772;2022-09-20T13:37:57;0.57;;;0.37;;
56824;SDS011;42705;50.326;18.772;2022-09-20T13:43:38;0.57;;;0.40;;
56824;SDS011;42705;50.326;18.772;2022-09-20T13:49:17;1.00;;;0.30;;
56824;SDS011;42705;50.326;18.772;2022-09-20T13:54:43;0.95;;;0.40;;
56824;SDS011;42705;50.326;18.772;2022-09-20T14:00:04;2.70;;;0.55;;
56824;SDS011;42705;50.326;18.772;2022-09-20T14:05:30;0.65;;;0.45;;
56824;SDS011;42705;50.326;18.772;2022-09-20T14:11:07;1.07;;;0.45;;
56824;SDS011;42705;50.326;18.772;2022-09-20T14:16:47;1.12;;;0.42;;
56824;SDS011;42705;50.326;18.772;2022-09-20T14:22:13;1.07;;;0.50;;
56824;SDS011;42705;50.326;18.772;2022-09-20T14:27:42;0.65;;;0.30;;
56824;SDS011;42705;50.326;18.772;2022-09-20T14:33:04;0.80;;;0.40;;
56824;SDS011;42705;50.326;18.772;2022-09-20T14:38:29;0.25;;;0.25;;
56824;SDS011;42705;50.326;18.772;2022-09-20T14:43:53;1.25;;;0.40;;
56824;SDS011;42705;50.326;18.772;2022-09-20T14:55:00;0.60;;;0.40;;
56824;SDS011;42705;50.326;18.772;2022-09-20T15:00:25;0.80;;;0.35;;
56824;SDS011;42705;50.326;18.772;2022-09-20T15:05:46;0.70;;;0.50;;
56824;SDS011;42705;50.326;18.772;2022-09-20T15:11:19;1.22;;;0.68;;
56824;SDS011;42705;50.326;18.772;2022-09-20T15:16:38;1.20;;;0.57;;
56824;SDS011;42705;50.326;18.772;2022-09-20T15:21:59;1.35;;;0.60;;
56824;SDS011;42705;50.326;18.772;2022-09-20T15:27:20;1.35;;;0.75;;
56824;SDS011;42705;50.326;18.772;2022-09-20T15:32:41;1.45;;;0.60;;
56824;SDS011;42705;50.326;18.772;2022-09-20T15:38:04;1.70;;;1.00;;
56824;SDS011;42705;50.326;18.772;2022-09-20T15:43:26;2.58;;;1.40;;
56824;SDS011;42705;50.326;18.772;2022-09-20T15:48:49;1.50;;;1.22;;
56824;SDS011;42705;50.326;18.772;2022-09-20T15:54:11;1.37;;;1.27;;
56824;SDS011;42705;50.326;18.772;2022-09-20T15:59:34;1.98;;;1.15;;
56824;SDS011;42705;50.326;18.772;2022-09-20T16:04:55;2.72;;;1.55;;
56824;SDS011;42705;50.326;18.772;2022-09-20T16:10:17;3.50;;;1.60;;
56824;SDS011;42705;50.326;18.772;2022-09-20T16:15:37;3.17;;;1.87;;
56824;SDS011;42705;50.326;18.772;2022-09-20T16:21:04;3.02;;;2.20;;
56824;SDS011;42705;50.326;18.772;2022-09-20T16:26:30;2.97;;;1.70;;
56824;SDS011;42705;50.326;18.772;2022-09-20T16:31:54;3.45;;;1.57;;
56824;SDS011;42705;50.326;18.772;2022-09-20T16:37:16;2.85;;;2.10;;
56824;SDS011;42705;50.326;18.772;2022-09-20T16:42:38;1.95;;;1.70;;
56824;SDS011;42705;50.326;18.772;2022-09-20T16:47:59;1.98;;;1.67;;
56824;SDS011;42705;50.326;18.772;2022-09-20T16:53:21;3.75;;;1.30;;
56824;SDS011;42705;50.326;18.772;2022-09-20T16:58:43;2.22;;;1.40;;
56824;SDS011;42705;50.326;18.772;2022-09-20T17:04:05;3.53;;;1.90;;
56824;SDS011;42705;50.326;18.772;2022-09-20T17:09:27;4.05;;;2.02;;
56824;SDS011;42705;50.326;18.772;2022-09-20T17:14:48;3.95;;;2.22;;
56824;SDS011;42705;50.326;18.772;2022-09-20T17:20:09;8.58;;;3.65;;
56824;SDS011;42705;50.326;18.772;2022-09-20T17:25:30;11.03;;;4.33;;
56824;SDS011;42705;50.326;18.772;2022-09-20T17:30:51;10.10;;;4.15;;
56824;SDS011;42705;50.326;18.772;2022-09-20T17:36:12;11.50;;;5.25;;
56824;SDS011;42705;50.326;18.772;2022-09-20T17:41:42;14.00;;;8.20;;
56824;SDS011;42705;50.326;18.772;2022-09-20T17:47:05;8.53;;;4.92;;
56824;SDS011;42705;50.326;18.772;2022-09-20T17:52:26;4.83;;;3.15;;
56824;SDS011;42705;50.326;18.772;2022-09-20T17:57:47;4.15;;;2.85;;
56824;SDS011;42705;50.326;18.772;2022-09-20T18:03:08;5.67;;;3.47;;
56824;SDS011;42705;50.326;18.772;2022-09-20T18:08:29;5.60;;;3.70;;
56824;SDS011;42705;50.326;18.772;2022-09-20T18:13:50;8.40;;;4.00;;
56824;SDS011;42705;50.326;18.772;2022-09-20T18:19:12;9.48;;;5.50;;
56824;SDS011;42705;50.326;18.772;2022-09-20T18:24:35;10.32;;;6.00;;
56824;SDS011;42705;50.326;18.772;2022-09-20T18:29:56;10.20;;;6.97;;
56824;SDS011;42705;50.326;18.772;2022-09-20T18:35:16;13.85;;;8.28;;
56824;SDS011;42705;50.326;18.772;2022-09-20T18:40:37;9.95;;;7.10;;
56824;SDS011;42705;50.326;18.772;2022-09-20T18:45:58;9.98;;;5.70;;
56824;SDS011;42705;50.326;18.772;2022-09-20T18:51:19;7.55;;;4.60;;
56824;SDS011;42705;50.326;18.772;2022-09-20T18:56:42;5.95;;;4.05;;
56824;SDS011;42705;50.326;18.772;2022-09-20T19:02:07;7.80;;;4.97;;
56824;SDS011;42705;50.326;18.772;2022-09-20T19:13:52;6.60;;;5.00;;
56824;SDS011;42705;50.326;18.772;2022-09-20T19:25:24;6.10;;;4.50;;
56824;SDS011;42705;50.326;18.772;2022-09-20T19:31:03;6.28;;;4.47;;
56824;SDS011;42705;50.326;18.772;2022-09-20T19:48:20;9.88;;;6.35;;
56824;SDS011;42705;50.326;18.772;2022-09-20T19:53:51;13.40;;;7.85;;
56824;SDS011;42705;50.326;18.772;2022-09-20T19:59:14;19.37;;;11.88;;
56824;SDS011;42705;50.326;18.772;2022-09-20T20:04:38;16.83;;;11.13;;
56824;SDS011;42705;50.326;18.772;2022-09-20T20:15:44;10.67;;;6.53;;
56824;SDS011;42705;50.326;18.772;2022-09-20T20:21:15;10.10;;;5.28;;
56824;SDS011;42705;50.326;18.772;2022-09-20T20:26:44;6.77;;;5.03;;
56824;SDS011;42705;50.326;18.772;2022-09-20T20:32:04;8.15;;;5.85;;
56824;SDS011;42705;50.326;18.772;2022-09-20T20:37:27;7.87;;;5.75;;
56824;SDS011;42705;50.326;18.772;2022-09-20T20:42:56;8.65;;;6.12;;
56824;SDS011;42705;50.326;18.772;2022-09-20T20:48:18;10.28;;;6.58;;
56824;SDS011;42705;50.326;18.772;2022-09-20T20:53:40;9.05;;;6.08;;
56824;SDS011;42705;50.326;18.772;2022-09-20T20:59:06;10.13;;;6.45;;
56824;SDS011;42705;50.326;18.772;2022-09-20T21:09:51;9.23;;;6.67;;
56824;SDS011;42705;50.326;18.772;2022-09-20T21:15:12;9.93;;;6.83;;
56824;SDS011;42705;50.326;18.772;2022-09-20T21:20:33;9.90;;;6.50;;
56824;SDS011;42705;50.326;18.772;2022-09-20T21:26:04;12.23;;;7.15;;
56824;SDS011;42705;50.326;18.772;2022-09-20T21:31:21;9.70;;;7.17;;
56824;SDS011;42705;50.326;18.772;2022-09-20T21:36:43;9.78;;;6.67;;
56824;SDS011;42705;50.326;18.772;2022-09-20T21:42:05;9.60;;;7.00;;
56824;SDS011;42705;50.326;18.772;2022-09-20T21:47:26;10.70;;;6.60;;
56824;SDS011;42705;50.326;18.772;2022-09-20T21:52:47;10.05;;;5.97;;
56824;SDS011;42705;50.326;18.772;2022-09-20T21:58:08;10.00;;;7.50;;
56824;SDS011;42705;50.326;18.772;2022-09-20T22:03:30;9.80;;;7.60;;
56824;SDS011;42705;50.326;18.772;2022-09-20T22:08:58;10.08;;;6.67;;
56824;SDS011;42705;50.326;18.772;2022-09-20T22:14:23;11.15;;;8.03;;
56824;SDS011;42705;50.326;18.772;2022-09-20T22:19:44;11.80;;;7.58;;
56824;SDS011;42705;50.326;18.772;2022-09-20T22:25:05;11.22;;;7.87;;
56824;SDS011;42705;50.326;18.772;2022-09-20T22:30:27;11.85;;;7.47;;
56824;SDS011;42705;50.326;18.772;2022-09-20T22:35:48;13.20;;;8.15;;
56824;SDS011;42705;50.326;18.772;2022-09-20T22:41:09;12.70;;;8.40;;
56824;SDS011;42705;50.326;18.772;2022-09-20T22:46:31;10.17;;;7.33;;
56824;SDS011;42705;50.326;18.772;2022-09-20T22:51:53;11.20;;;7.00;;
56824;SDS011;42705;50.326;18.772;2022-09-20T22:57:14;9.28;;;6.97;;
56824;SDS011;42705;50.326;18.772;2022-09-20T23:02:35;10.35;;;6.62;;
56824;SDS011;42705;50.326;18.772;2022-09-20T23:07:55;9.50;;;6.62;;
56824;SDS011;42705;50.326;18.772;2022-09-20T23:13:16;12.43;;;5.90;;
56824;SDS011;42705;50.326;18.772;2022-09-20T23:18:37;10.10;;;6.20;;
56824;SDS011;42705;50.326;18.772;2022-09-20T23:23:59;10.48;;;6.42;;
56824;SDS011;42705;50.326;18.772;2022-09-20T23:29:22;9.08;;;6.62;;
56824;SDS011;42705;50.326;18.772;2022-09-20T23:34:45;10.82;;;6.53;;
56824;SDS011;42705;50.326;18.772;2022-09-20T23:40:06;10.35;;;6.70;;
56824;SDS011;42705;50.326;18.772;2022-09-20T23:45:29;8.45;;;6.65;;
56824;SDS011;42705;50.326;18.772;2022-09-20T23:50:49;7.50;;;5.97;;
56824;SDS011;42705;50.326;18.772;2022-09-20T23:56:11;12.60;;;6.47;;
